Welcome, Maryland
Current Conditions -  °F | °C
As of 8:56 AM on Friday 28 Nov 2014 (Local Time) from KNYG Reporting Station
Clear Clear  
Wind Chill: 30°   Ceiling: Unl
Heat Index: 37°   Visibility: 10mi
Dew Point: 21°   Wind: 9mph
Humidity: 52%   Direction: 320°NW
Pressure: 30.34"   Gusts: NA
Location:  38.48°N, 77.09°W
Report Text: KNYG 281356Z AUTO 32008KT 10SM CLR 03/M06 A3034 RMK AO2 SLP274 T00281061 $
Loading
Personal Weather Stations






























Interactive Weather Map New forecast layout! Learn more

10-Day Weather Forecast

Advertisements
Track Severe Weather on mobile